sensor_id;sensor_type;location;lat;lon;timestamp;P1;durP1;ratioP1;P2;durP2;ratioP2
14770;SDS011;7477;45.222;5.688;2022-07-23T00:00:56;6.80;;;6.20;;
14770;SDS011;7477;45.222;5.688;2022-07-23T00:04:16;8.07;;;7.20;;
14770;SDS011;7477;45.222;5.688;2022-07-23T00:07:35;10.05;;;7.18;;
14770;SDS011;7477;45.222;5.688;2022-07-23T00:10:54;8.65;;;6.72;;
14770;SDS011;7477;45.222;5.688;2022-07-23T00:14:14;8.07;;;6.80;;
14770;SDS011;7477;45.222;5.688;2022-07-23T00:17:33;7.07;;;6.43;;
14770;SDS011;7477;45.222;5.688;2022-07-23T00:20:52;7.88;;;6.68;;
14770;SDS011;7477;45.222;5.688;2022-07-23T00:24:12;7.53;;;6.82;;
14770;SDS011;7477;45.222;5.688;2022-07-23T00:27:31;8.45;;;6.20;;
14770;SDS011;7477;45.222;5.688;2022-07-23T00:30:50;9.38;;;7.15;;
14770;SDS011;7477;45.222;5.688;2022-07-23T00:34:10;10.20;;;7.00;;
14770;SDS011;7477;45.222;5.688;2022-07-23T00:37:29;16.38;;;7.38;;
14770;SDS011;7477;45.222;5.688;2022-07-23T00:40:48;8.45;;;6.85;;
14770;SDS011;7477;45.222;5.688;2022-07-23T00:44:21;5.95;;;5.38;;
14770;SDS011;7477;45.222;5.688;2022-07-23T00:47:41;7.15;;;5.43;;
14770;SDS011;7477;45.222;5.688;2022-07-23T00:51:01;6.03;;;4.85;;
14770;SDS011;7477;45.222;5.688;2022-07-23T00:54:22;6.45;;;5.35;;
14770;SDS011;7477;45.222;5.688;2022-07-23T00:57:42;7.18;;;5.47;;
14770;SDS011;7477;45.222;5.688;2022-07-23T01:01:02;8.55;;;6.00;;
14770;SDS011;7477;45.222;5.688;2022-07-23T01:04:21;5.90;;;5.18;;
14770;SDS011;7477;45.222;5.688;2022-07-23T01:07:40;8.90;;;5.18;;
14770;SDS011;7477;45.222;5.688;2022-07-23T01:11:00;7.35;;;5.47;;
14770;SDS011;7477;45.222;5.688;2022-07-23T01:14:19;5.63;;;5.05;;
14770;SDS011;7477;45.222;5.688;2022-07-23T01:17:38;6.65;;;5.07;;
14770;SDS011;7477;45.222;5.688;2022-07-23T01:20:58;6.78;;;5.22;;
14770;SDS011;7477;45.222;5.688;2022-07-23T01:24:17;10.25;;;5.22;;
14770;SDS011;7477;45.222;5.688;2022-07-23T01:27:39;6.72;;;5.18;;
14770;SDS011;7477;45.222;5.688;2022-07-23T01:30:59;6.07;;;5.45;;
14770;SDS011;7477;45.222;5.688;2022-07-23T01:34:19;8.18;;;5.25;;
14770;SDS011;7477;45.222;5.688;2022-07-23T01:37:38;6.25;;;5.00;;
14770;SDS011;7477;45.222;5.688;2022-07-23T01:40:57;7.00;;;4.95;;
14770;SDS011;7477;45.222;5.688;2022-07-23T01:44:16;6.82;;;5.75;;
14770;SDS011;7477;45.222;5.688;2022-07-23T01:47:36;7.70;;;5.28;;
14770;SDS011;7477;45.222;5.688;2022-07-23T01:50:55;7.10;;;5.18;;
14770;SDS011;7477;45.222;5.688;2022-07-23T01:54:14;6.47;;;5.20;;
14770;SDS011;7477;45.222;5.688;2022-07-23T01:57:33;8.50;;;5.05;;
14770;SDS011;7477;45.222;5.688;2022-07-23T02:00:53;5.85;;;4.97;;
14770;SDS011;7477;45.222;5.688;2022-07-23T02:04:13;10.25;;;5.65;;
14770;SDS011;7477;45.222;5.688;2022-07-23T02:07:32;8.55;;;5.07;;
14770;SDS011;7477;45.222;5.688;2022-07-23T02:10:51;10.27;;;5.88;;
14770;SDS011;7477;45.222;5.688;2022-07-23T02:14:10;6.07;;;5.45;;
14770;SDS011;7477;45.222;5.688;2022-07-23T02:17:29;8.30;;;5.72;;
14770;SDS011;7477;45.222;5.688;2022-07-23T02:20:48;8.85;;;5.90;;
14770;SDS011;7477;45.222;5.688;2022-07-23T02:24:08;6.20;;;5.60;;
14770;SDS011;7477;45.222;5.688;2022-07-23T02:27:27;5.63;;;4.97;;
14770;SDS011;7477;45.222;5.688;2022-07-23T02:30:47;6.78;;;5.63;;
14770;SDS011;7477;45.222;5.688;2022-07-23T02:34:06;7.10;;;5.10;;
14770;SDS011;7477;45.222;5.688;2022-07-23T02:37:26;6.90;;;5.32;;
14770;SDS011;7477;45.222;5.688;2022-07-23T02:40:45;9.57;;;5.88;;
14770;SDS011;7477;45.222;5.688;2022-07-23T02:44:04;6.72;;;5.15;;
14770;SDS011;7477;45.222;5.688;2022-07-23T02:47:23;6.75;;;5.60;;
14770;SDS011;7477;45.222;5.688;2022-07-23T02:50:42;9.38;;;5.47;;
14770;SDS011;7477;45.222;5.688;2022-07-23T02:54:01;6.00;;;5.43;;
14770;SDS011;7477;45.222;5.688;2022-07-23T02:57:20;10.73;;;5.72;;
14770;SDS011;7477;45.222;5.688;2022-07-23T03:00:40;6.38;;;5.72;;
14770;SDS011;7477;45.222;5.688;2022-07-23T03:03:59;6.63;;;5.38;;
14770;SDS011;7477;45.222;5.688;2022-07-23T03:07:18;7.03;;;5.45;;
14770;SDS011;7477;45.222;5.688;2022-07-23T03:10:38;5.38;;;4.90;;
14770;SDS011;7477;45.222;5.688;2022-07-23T03:13:57;7.20;;;5.32;;
14770;SDS011;7477;45.222;5.688;2022-07-23T03:17:16;12.73;;;8.55;;
14770;SDS011;7477;45.222;5.688;2022-07-23T03:20:36;6.50;;;5.50;;
14770;SDS011;7477;45.222;5.688;2022-07-23T03:23:55;6.85;;;5.65;;
14770;SDS011;7477;45.222;5.688;2022-07-23T03:27:14;6.65;;;6.00;;
14770;SDS011;7477;45.222;5.688;2022-07-23T03:30:34;8.82;;;5.88;;
14770;SDS011;7477;45.222;5.688;2022-07-23T03:33:53;8.13;;;5.72;;
14770;SDS011;7477;45.222;5.688;2022-07-23T03:37:12;8.90;;;6.03;;
14770;SDS011;7477;45.222;5.688;2022-07-23T03:40:32;7.38;;;6.00;;
14770;SDS011;7477;45.222;5.688;2022-07-23T03:43:52;6.60;;;5.22;;
14770;SDS011;7477;45.222;5.688;2022-07-23T03:47:11;8.30;;;6.00;;
14770;SDS011;7477;45.222;5.688;2022-07-23T03:50:30;8.35;;;5.85;;
14770;SDS011;7477;45.222;5.688;2022-07-23T03:53:49;8.27;;;6.03;;
14770;SDS011;7477;45.222;5.688;2022-07-23T03:57:08;6.63;;;5.95;;
14770;SDS011;7477;45.222;5.688;2022-07-23T04:00:28;6.47;;;5.43;;
14770;SDS011;7477;45.222;5.688;2022-07-23T04:03:47;7.43;;;5.65;;
14770;SDS011;7477;45.222;5.688;2022-07-23T04:07:07;7.65;;;5.88;;
14770;SDS011;7477;45.222;5.688;2022-07-23T04:10:26;8.45;;;6.28;;
14770;SDS011;7477;45.222;5.688;2022-07-23T04:13:45;6.85;;;5.22;;
14770;SDS011;7477;45.222;5.688;2022-07-23T04:17:04;7.95;;;6.18;;
14770;SDS011;7477;45.222;5.688;2022-07-23T04:20:24;8.23;;;6.25;;
14770;SDS011;7477;45.222;5.688;2022-07-23T04:23:43;7.70;;;6.07;;
14770;SDS011;7477;45.222;5.688;2022-07-23T04:27:03;7.38;;;5.47;;
14770;SDS011;7477;45.222;5.688;2022-07-23T04:30:23;7.05;;;6.35;;
14770;SDS011;7477;45.222;5.688;2022-07-23T04:33:42;8.00;;;6.30;;
14770;SDS011;7477;45.222;5.688;2022-07-23T04:37:01;8.90;;;6.72;;
14770;SDS011;7477;45.222;5.688;2022-07-23T04:40:20;8.02;;;6.72;;
14770;SDS011;7477;45.222;5.688;2022-07-23T04:43:39;10.98;;;6.70;;
14770;SDS011;7477;45.222;5.688;2022-07-23T04:46:59;8.10;;;6.95;;
14770;SDS011;7477;45.222;5.688;2022-07-23T04:50:18;9.30;;;7.47;;
14770;SDS011;7477;45.222;5.688;2022-07-23T04:53:40;9.25;;;7.05;;
14770;SDS011;7477;45.222;5.688;2022-07-23T04:56:59;7.90;;;6.78;;
14770;SDS011;7477;45.222;5.688;2022-07-23T05:00:18;7.90;;;7.20;;
14770;SDS011;7477;45.222;5.688;2022-07-23T05:03:37;7.40;;;6.70;;
14770;SDS011;7477;45.222;5.688;2022-07-23T05:06:57;9.15;;;6.13;;
14770;SDS011;7477;45.222;5.688;2022-07-23T05:10:17;8.13;;;6.40;;
14770;SDS011;7477;45.222;5.688;2022-07-23T05:13:36;10.27;;;7.40;;
14770;SDS011;7477;45.222;5.688;2022-07-23T05:16:56;7.70;;;6.72;;
14770;SDS011;7477;45.222;5.688;2022-07-23T05:20:15;11.02;;;8.07;;
14770;SDS011;7477;45.222;5.688;2022-07-23T05:23:35;19.42;;;8.98;;
14770;SDS011;7477;45.222;5.688;2022-07-23T05:26:54;10.70;;;8.07;;
14770;SDS011;7477;45.222;5.688;2022-07-23T05:30:13;10.30;;;7.10;;
14770;SDS011;7477;45.222;5.688;2022-07-23T05:33:33;12.02;;;7.50;;
14770;SDS011;7477;45.222;5.688;2022-07-23T05:36:52;12.45;;;7.82;;
14770;SDS011;7477;45.222;5.688;2022-07-23T05:40:12;12.82;;;7.82;;
14770;SDS011;7477;45.222;5.688;2022-07-23T05:43:32;7.93;;;7.13;;
14770;SDS011;7477;45.222;5.688;2022-07-23T05:46:51;12.32;;;7.35;;
14770;SDS011;7477;45.222;5.688;2022-07-23T05:50:10;12.77;;;7.95;;
14770;SDS011;7477;45.222;5.688;2022-07-23T05:53:30;12.65;;;8.43;;
14770;SDS011;7477;45.222;5.688;2022-07-23T05:56:49;9.73;;;8.30;;
14770;SDS011;7477;45.222;5.688;2022-07-23T06:00:09;11.35;;;7.50;;
14770;SDS011;7477;45.222;5.688;2022-07-23T06:03:30;10.10;;;7.90;;
14770;SDS011;7477;45.222;5.688;2022-07-23T06:06:49;11.60;;;8.38;;
14770;SDS011;7477;45.222;5.688;2022-07-23T06:10:08;8.43;;;7.40;;
14770;SDS011;7477;45.222;5.688;2022-07-23T06:13:28;12.18;;;8.35;;
14770;SDS011;7477;45.222;5.688;2022-07-23T06:16:47;10.38;;;8.30;;
14770;SDS011;7477;45.222;5.688;2022-07-23T06:20:07;9.55;;;8.10;;
14770;SDS011;7477;45.222;5.688;2022-07-23T06:23:28;8.93;;;8.05;;
14770;SDS011;7477;45.222;5.688;2022-07-23T06:26:47;9.40;;;8.50;;
14770;SDS011;7477;45.222;5.688;2022-07-23T06:30:07;9.73;;;8.32;;
14770;SDS011;7477;45.222;5.688;2022-07-23T06:33:27;8.82;;;7.93;;
14770;SDS011;7477;45.222;5.688;2022-07-23T06:36:46;8.93;;;7.97;;
14770;SDS011;7477;45.222;5.688;2022-07-23T06:40:06;11.32;;;8.63;;
14770;SDS011;7477;45.222;5.688;2022-07-23T06:43:25;12.43;;;8.05;;
14770;SDS011;7477;45.222;5.688;2022-07-23T06:46:45;9.93;;;8.02;;
14770;SDS011;7477;45.222;5.688;2022-07-23T06:50:04;10.48;;;8.60;;
14770;SDS011;7477;45.222;5.688;2022-07-23T06:53:24;14.50;;;8.85;;
14770;SDS011;7477;45.222;5.688;2022-07-23T06:56:43;9.48;;;8.32;;
14770;SDS011;7477;45.222;5.688;2022-07-23T07:00:03;9.98;;;9.02;;
14770;SDS011;7477;45.222;5.688;2022-07-23T07:03:23;9.98;;;7.38;;
14770;SDS011;7477;45.222;5.688;2022-07-23T07:06:42;10.23;;;8.40;;
14770;SDS011;7477;45.222;5.688;2022-07-23T07:10:02;9.38;;;7.90;;
14770;SDS011;7477;45.222;5.688;2022-07-23T07:13:22;12.35;;;8.27;;
14770;SDS011;7477;45.222;5.688;2022-07-23T07:16:41;8.65;;;7.68;;
14770;SDS011;7477;45.222;5.688;2022-07-23T07:20:01;9.52;;;8.63;;
14770;SDS011;7477;45.222;5.688;2022-07-23T07:23:20;10.73;;;8.18;;
14770;SDS011;7477;45.222;5.688;2022-07-23T07:26:40;9.48;;;8.40;;
14770;SDS011;7477;45.222;5.688;2022-07-23T07:29:59;8.70;;;7.88;;
14770;SDS011;7477;45.222;5.688;2022-07-23T07:33:19;8.88;;;7.97;;
14770;SDS011;7477;45.222;5.688;2022-07-23T07:36:39;9.60;;;8.50;;
14770;SDS011;7477;45.222;5.688;2022-07-23T07:39:58;9.35;;;8.02;;
14770;SDS011;7477;45.222;5.688;2022-07-23T07:43:18;9.07;;;7.82;;
14770;SDS011;7477;45.222;5.688;2022-07-23T07:46:37;8.82;;;7.93;;
14770;SDS011;7477;45.222;5.688;2022-07-23T07:49:56;10.52;;;8.48;;
14770;SDS011;7477;45.222;5.688;2022-07-23T07:53:15;14.40;;;9.07;;
14770;SDS011;7477;45.222;5.688;2022-07-23T07:56:34;10.18;;;9.05;;
14770;SDS011;7477;45.222;5.688;2022-07-23T07:59:54;15.48;;;8.90;;
14770;SDS011;7477;45.222;5.688;2022-07-23T08:03:13;12.20;;;9.50;;
14770;SDS011;7477;45.222;5.688;2022-07-23T08:06:32;12.05;;;8.50;;
14770;SDS011;7477;45.222;5.688;2022-07-23T08:09:51;11.98;;;8.90;;
14770;SDS011;7477;45.222;5.688;2022-07-23T08:13:15;9.02;;;8.13;;
14770;SDS011;7477;45.222;5.688;2022-07-23T08:16:34;8.98;;;8.13;;
14770;SDS011;7477;45.222;5.688;2022-07-23T08:19:53;9.80;;;8.80;;
14770;SDS011;7477;45.222;5.688;2022-07-23T08:23:12;9.75;;;8.75;;
14770;SDS011;7477;45.222;5.688;2022-07-23T08:26:32;10.55;;;9.40;;
14770;SDS011;7477;45.222;5.688;2022-07-23T08:29:51;10.88;;;9.27;;
14770;SDS011;7477;45.222;5.688;2022-07-23T08:33:14;10.48;;;9.40;;
14770;SDS011;7477;45.222;5.688;2022-07-23T08:36:35;11.60;;;9.07;;
14770;SDS011;7477;45.222;5.688;2022-07-23T08:39:54;11.50;;;9.93;;
14770;SDS011;7477;45.222;5.688;2022-07-23T08:43:16;8.55;;;7.75;;
14770;SDS011;7477;45.222;5.688;2022-07-23T08:46:40;10.50;;;7.82;;
14770;SDS011;7477;45.222;5.688;2022-07-23T08:50:00;11.32;;;7.63;;
14770;SDS011;7477;45.222;5.688;2022-07-23T08:53:21;8.52;;;7.70;;
14770;SDS011;7477;45.222;5.688;2022-07-23T08:56:41;8.75;;;7.85;;
14770;SDS011;7477;45.222;5.688;2022-07-23T09:00:01;8.32;;;7.53;;
14770;SDS011;7477;45.222;5.688;2022-07-23T09:03:23;8.35;;;7.43;;
14770;SDS011;7477;45.222;5.688;2022-07-23T09:06:51;8.40;;;7.60;;
14770;SDS011;7477;45.222;5.688;2022-07-23T09:10:10;8.95;;;8.15;;
14770;SDS011;7477;45.222;5.688;2022-07-23T09:17:08;10.48;;;8.32;;
14770;SDS011;7477;45.222;5.688;2022-07-23T09:20:35;8.52;;;7.72;;
14770;SDS011;7477;45.222;5.688;2022-07-23T09:27:13;8.50;;;7.70;;
14770;SDS011;7477;45.222;5.688;2022-07-23T09:30:33;8.25;;;7.45;;
14770;SDS011;7477;45.222;5.688;2022-07-23T09:34:07;8.63;;;7.80;;
14770;SDS011;7477;45.222;5.688;2022-07-23T09:37:28;8.27;;;7.47;;
14770;SDS011;7477;45.222;5.688;2022-07-23T09:41:04;9.13;;;8.32;;
14770;SDS011;7477;45.222;5.688;2022-07-23T09:44:27;7.88;;;7.18;;
14770;SDS011;7477;45.222;5.688;2022-07-23T09:47:46;10.13;;;8.00;;
14770;SDS011;7477;45.222;5.688;2022-07-23T09:51:06;8.98;;;7.15;;
14770;SDS011;7477;45.222;5.688;2022-07-23T09:54:36;7.47;;;6.78;;
14770;SDS011;7477;45.222;5.688;2022-07-23T09:57:56;7.70;;;6.82;;
14770;SDS011;7477;45.222;5.688;2022-07-23T10:01:15;8.70;;;6.95;;
14770;SDS011;7477;45.222;5.688;2022-07-23T10:04:35;8.07;;;7.13;;
14770;SDS011;7477;45.222;5.688;2022-07-23T10:07:55;9.50;;;7.65;;
14770;SDS011;7477;45.222;5.688;2022-07-23T10:11:16;8.50;;;7.53;;
14770;SDS011;7477;45.222;5.688;2022-07-23T10:14:35;8.15;;;7.20;;
14770;SDS011;7477;45.222;5.688;2022-07-23T10:17:57;7.75;;;7.07;;
14770;SDS011;7477;45.222;5.688;2022-07-23T10:21:18;8.40;;;6.88;;
14770;SDS011;7477;45.222;5.688;2022-07-23T10:25:12;7.68;;;6.97;;
14770;SDS011;7477;45.222;5.688;2022-07-23T10:36:22;8.02;;;7.10;;
14770;SDS011;7477;45.222;5.688;2022-07-23T10:39:34;7.70;;;6.47;;
14770;SDS011;7477;45.222;5.688;2022-07-23T10:42:54;7.72;;;7.03;;
14770;SDS011;7477;45.222;5.688;2022-07-23T10:46:24;7.70;;;6.90;;
14770;SDS011;7477;45.222;5.688;2022-07-23T10:50:16;8.40;;;7.38;;
14770;SDS011;7477;45.222;5.688;2022-07-23T10:57:12;8.15;;;7.45;;
14770;SDS011;7477;45.222;5.688;2022-07-23T11:00:32;8.32;;;7.63;;
14770;SDS011;7477;45.222;5.688;2022-07-23T11:03:56;7.95;;;7.18;;
14770;SDS011;7477;45.222;5.688;2022-07-23T11:07:17;8.18;;;6.88;;
14770;SDS011;7477;45.222;5.688;2022-07-23T11:10:50;7.95;;;7.22;;
14770;SDS011;7477;45.222;5.688;2022-07-23T11:14:09;8.18;;;7.30;;
14770;SDS011;7477;45.222;5.688;2022-07-23T11:17:29;9.55;;;8.15;;
14770;SDS011;7477;45.222;5.688;2022-07-23T11:20:49;8.48;;;7.68;;
14770;SDS011;7477;45.222;5.688;2022-07-23T11:24:09;13.18;;;7.70;;
14770;SDS011;7477;45.222;5.688;2022-07-23T11:27:37;10.68;;;7.72;;
14770;SDS011;7477;45.222;5.688;2022-07-23T11:31:01;8.95;;;7.55;;
14770;SDS011;7477;45.222;5.688;2022-07-23T11:34:40;8.13;;;7.32;;
14770;SDS011;7477;45.222;5.688;2022-07-23T11:38:07;9.38;;;8.07;;
14770;SDS011;7477;45.222;5.688;2022-07-23T11:41:44;8.98;;;7.65;;
14770;SDS011;7477;45.222;5.688;2022-07-23T11:45:04;11.85;;;8.32;;
14770;SDS011;7477;45.222;5.688;2022-07-23T11:48:27;7.88;;;7.10;;
14770;SDS011;7477;45.222;5.688;2022-07-23T11:52:02;8.25;;;7.50;;
14770;SDS011;7477;45.222;5.688;2022-07-23T11:55:22;8.27;;;7.18;;
14770;SDS011;7477;45.222;5.688;2022-07-23T11:58:53;9.05;;;8.15;;
14770;SDS011;7477;45.222;5.688;2022-07-23T12:02:14;7.82;;;7.07;;
14770;SDS011;7477;45.222;5.688;2022-07-23T12:05:34;7.25;;;6.53;;
14770;SDS011;7477;45.222;5.688;2022-07-23T12:08:55;8.50;;;7.50;;
14770;SDS011;7477;45.222;5.688;2022-07-23T12:12:14;8.45;;;7.63;;
14770;SDS011;7477;45.222;5.688;2022-07-23T12:15:34;7.47;;;6.78;;
14770;SDS011;7477;45.222;5.688;2022-07-23T12:18:58;9.40;;;8.00;;
14770;SDS011;7477;45.222;5.688;2022-07-23T12:22:17;8.15;;;7.35;;
14770;SDS011;7477;45.222;5.688;2022-07-23T12:25:38;8.85;;;7.95;;
14770;SDS011;7477;45.222;5.688;2022-07-23T12:28:58;8.18;;;7.13;;
14770;SDS011;7477;45.222;5.688;2022-07-23T12:32:19;9.93;;;7.65;;
14770;SDS011;7477;45.222;5.688;2022-07-23T12:35:45;8.70;;;7.20;;
14770;SDS011;7477;45.222;5.688;2022-07-23T12:39:05;8.90;;;7.90;;
14770;SDS011;7477;45.222;5.688;2022-07-23T12:42:24;7.78;;;6.72;;
14770;SDS011;7477;45.222;5.688;2022-07-23T12:45:48;7.50;;;6.80;;
14770;SDS011;7477;45.222;5.688;2022-07-23T12:49:10;8.48;;;7.68;;
14770;SDS011;7477;45.222;5.688;2022-07-23T12:52:43;8.98;;;7.85;;
14770;SDS011;7477;45.222;5.688;2022-07-23T12:56:06;9.32;;;7.90;;
14770;SDS011;7477;45.222;5.688;2022-07-23T12:59:30;9.20;;;7.18;;
14770;SDS011;7477;45.222;5.688;2022-07-23T13:02:49;7.68;;;6.90;;
14770;SDS011;7477;45.222;5.688;2022-07-23T13:06:11;11.38;;;7.22;;
14770;SDS011;7477;45.222;5.688;2022-07-23T13:09:31;8.80;;;7.45;;
14770;SDS011;7477;45.222;5.688;2022-07-23T13:12:51;8.10;;;7.38;;
14770;SDS011;7477;45.222;5.688;2022-07-23T13:16:10;9.38;;;7.50;;
14770;SDS011;7477;45.222;5.688;2022-07-23T13:19:29;8.75;;;7.78;;
14770;SDS011;7477;45.222;5.688;2022-07-23T13:22:48;10.80;;;7.72;;
14770;SDS011;7477;45.222;5.688;2022-07-23T13:26:07;8.43;;;7.63;;
14770;SDS011;7477;45.222;5.688;2022-07-23T13:29:26;8.25;;;7.45;;
14770;SDS011;7477;45.222;5.688;2022-07-23T13:32:45;8.73;;;7.57;;
14770;SDS011;7477;45.222;5.688;2022-07-23T13:36:06;8.57;;;6.90;;
14770;SDS011;7477;45.222;5.688;2022-07-23T13:39:26;7.75;;;7.05;;
14770;SDS011;7477;45.222;5.688;2022-07-23T13:42:45;11.88;;;7.07;;
14770;SDS011;7477;45.222;5.688;2022-07-23T13:46:04;7.57;;;6.40;;
14770;SDS011;7477;45.222;5.688;2022-07-23T13:49:23;7.93;;;7.13;;
14770;SDS011;7477;45.222;5.688;2022-07-23T13:52:43;8.93;;;7.97;;
14770;SDS011;7477;45.222;5.688;2022-07-23T13:56:02;8.07;;;7.28;;
14770;SDS011;7477;45.222;5.688;2022-07-23T13:59:22;8.73;;;7.55;;
14770;SDS011;7477;45.222;5.688;2022-07-23T14:02:41;8.57;;;7.78;;
14770;SDS011;7477;45.222;5.688;2022-07-23T14:06:00;9.93;;;7.35;;
14770;SDS011;7477;45.222;5.688;2022-07-23T14:09:20;7.68;;;6.97;;
14770;SDS011;7477;45.222;5.688;2022-07-23T14:12:40;8.40;;;7.45;;
14770;SDS011;7477;45.222;5.688;2022-07-23T14:15:59;8.23;;;7.03;;
14770;SDS011;7477;45.222;5.688;2022-07-23T14:19:19;8.68;;;7.80;;
14770;SDS011;7477;45.222;5.688;2022-07-23T14:22:38;8.45;;;7.55;;
14770;SDS011;7477;45.222;5.688;2022-07-23T14:25:58;9.77;;;7.43;;
14770;SDS011;7477;45.222;5.688;2022-07-23T14:29:18;8.38;;;7.68;;
14770;SDS011;7477;45.222;5.688;2022-07-23T14:32:37;9.23;;;8.13;;
14770;SDS011;7477;45.222;5.688;2022-07-23T14:35:57;8.38;;;7.55;;
14770;SDS011;7477;45.222;5.688;2022-07-23T14:39:17;8.20;;;7.40;;
14770;SDS011;7477;45.222;5.688;2022-07-23T14:42:37;7.57;;;6.97;;
14770;SDS011;7477;45.222;5.688;2022-07-23T14:45:56;8.32;;;7.53;;
14770;SDS011;7477;45.222;5.688;2022-07-23T14:49:15;8.32;;;7.38;;
14770;SDS011;7477;45.222;5.688;2022-07-23T14:52:35;8.07;;;7.28;;
14770;SDS011;7477;45.222;5.688;2022-07-23T14:55:54;9.55;;;7.57;;
14770;SDS011;7477;45.222;5.688;2022-07-23T14:59:15;10.30;;;7.22;;
14770;SDS011;7477;45.222;5.688;2022-07-23T15:02:34;7.82;;;7.03;;
14770;SDS011;7477;45.222;5.688;2022-07-23T15:05:54;9.57;;;7.05;;
14770;SDS011;7477;45.222;5.688;2022-07-23T15:09:13;8.10;;;7.40;;
14770;SDS011;7477;45.222;5.688;2022-07-23T15:12:33;8.85;;;6.53;;
14770;SDS011;7477;45.222;5.688;2022-07-23T15:15:52;7.55;;;6.93;;
14770;SDS011;7477;45.222;5.688;2022-07-23T15:19:11;10.05;;;7.82;;
14770;SDS011;7477;45.222;5.688;2022-07-23T15:22:30;7.85;;;7.05;;
14770;SDS011;7477;45.222;5.688;2022-07-23T15:25:50;10.45;;;7.50;;
14770;SDS011;7477;45.222;5.688;2022-07-23T15:29:09;8.93;;;6.95;;
14770;SDS011;7477;45.222;5.688;2022-07-23T15:32:28;7.90;;;7.13;;
14770;SDS011;7477;45.222;5.688;2022-07-23T15:35:47;8.27;;;7.57;;
14770;SDS011;7477;45.222;5.688;2022-07-23T15:39:07;8.13;;;7.43;;
14770;SDS011;7477;45.222;5.688;2022-07-23T15:42:27;8.02;;;6.80;;
14770;SDS011;7477;45.222;5.688;2022-07-23T15:45:47;8.43;;;6.72;;
14770;SDS011;7477;45.222;5.688;2022-07-23T15:49:06;7.72;;;6.93;;
14770;SDS011;7477;45.222;5.688;2022-07-23T15:52:27;8.45;;;6.70;;
14770;SDS011;7477;45.222;5.688;2022-07-23T15:55:46;7.32;;;6.55;;
14770;SDS011;7477;45.222;5.688;2022-07-23T15:59:07;7.47;;;6.88;;
14770;SDS011;7477;45.222;5.688;2022-07-23T16:02:27;7.85;;;7.05;;
14770;SDS011;7477;45.222;5.688;2022-07-23T16:05:46;7.95;;;6.85;;
14770;SDS011;7477;45.222;5.688;2022-07-23T16:09:06;7.30;;;6.63;;
14770;SDS011;7477;45.222;5.688;2022-07-23T16:12:26;8.00;;;7.30;;
14770;SDS011;7477;45.222;5.688;2022-07-23T16:15:45;8.27;;;7.45;;
14770;SDS011;7477;45.222;5.688;2022-07-23T16:19:04;7.70;;;7.00;;
14770;SDS011;7477;45.222;5.688;2022-07-23T16:22:23;8.65;;;7.20;;
14770;SDS011;7477;45.222;5.688;2022-07-23T16:25:43;10.57;;;7.45;;
14770;SDS011;7477;45.222;5.688;2022-07-23T16:29:02;7.65;;;6.95;;
14770;SDS011;7477;45.222;5.688;2022-07-23T16:32:22;9.00;;;6.93;;
14770;SDS011;7477;45.222;5.688;2022-07-23T16:35:41;7.75;;;6.43;;
14770;SDS011;7477;45.222;5.688;2022-07-23T16:39:02;7.35;;;6.68;;
14770;SDS011;7477;45.222;5.688;2022-07-23T16:42:21;8.38;;;6.38;;
14770;SDS011;7477;45.222;5.688;2022-07-23T16:45:40;7.28;;;6.57;;
14770;SDS011;7477;45.222;5.688;2022-07-23T16:49:00;7.53;;;6.72;;
14770;SDS011;7477;45.222;5.688;2022-07-23T16:52:19;7.20;;;6.50;;
14770;SDS011;7477;45.222;5.688;2022-07-23T16:55:39;8.35;;;6.55;;
14770;SDS011;7477;45.222;5.688;2022-07-23T16:58:58;7.15;;;6.43;;
14770;SDS011;7477;45.222;5.688;2022-07-23T17:02:17;8.80;;;6.65;;
14770;SDS011;7477;45.222;5.688;2022-07-23T17:05:36;7.13;;;6.43;;
14770;SDS011;7477;45.222;5.688;2022-07-23T17:08:55;7.82;;;6.57;;
14770;SDS011;7477;45.222;5.688;2022-07-23T17:12:14;7.00;;;6.30;;
14770;SDS011;7477;45.222;5.688;2022-07-23T17:15:34;8.20;;;6.40;;
14770;SDS011;7477;45.222;5.688;2022-07-23T17:18:54;7.50;;;6.65;;
14770;SDS011;7477;45.222;5.688;2022-07-23T17:22:13;8.45;;;7.03;;
14770;SDS011;7477;45.222;5.688;2022-07-23T17:25:33;11.20;;;6.63;;
14770;SDS011;7477;45.222;5.688;2022-07-23T17:28:52;9.40;;;6.05;;
14770;SDS011;7477;45.222;5.688;2022-07-23T17:32:12;9.57;;;6.50;;
14770;SDS011;7477;45.222;5.688;2022-07-23T17:35:31;7.68;;;6.65;;
14770;SDS011;7477;45.222;5.688;2022-07-23T17:38:51;7.57;;;6.82;;
14770;SDS011;7477;45.222;5.688;2022-07-23T17:42:10;8.95;;;6.40;;
14770;SDS011;7477;45.222;5.688;2022-07-23T17:45:29;6.72;;;6.05;;
14770;SDS011;7477;45.222;5.688;2022-07-23T17:48:48;9.10;;;6.88;;
14770;SDS011;7477;45.222;5.688;2022-07-23T17:52:07;7.03;;;6.35;;
14770;SDS011;7477;45.222;5.688;2022-07-23T17:55:26;6.30;;;5.80;;
14770;SDS011;7477;45.222;5.688;2022-07-23T17:58:46;8.30;;;6.20;;
14770;SDS011;7477;45.222;5.688;2022-07-23T18:02:05;6.32;;;5.75;;
14770;SDS011;7477;45.222;5.688;2022-07-23T18:05:25;7.85;;;5.88;;
14770;SDS011;7477;45.222;5.688;2022-07-23T18:08:45;8.02;;;5.65;;
14770;SDS011;7477;45.222;5.688;2022-07-23T18:12:05;7.57;;;6.22;;
14770;SDS011;7477;45.222;5.688;2022-07-23T18:15:25;6.15;;;5.55;;
14770;SDS011;7477;45.222;5.688;2022-07-23T18:18:44;7.05;;;5.53;;
14770;SDS011;7477;45.222;5.688;2022-07-23T18:22:03;6.78;;;5.90;;
14770;SDS011;7477;45.222;5.688;2022-07-23T18:25:23;6.88;;;6.15;;
14770;SDS011;7477;45.222;5.688;2022-07-23T18:28:42;7.05;;;5.68;;
14770;SDS011;7477;45.222;5.688;2022-07-23T18:32:02;8.32;;;6.28;;
14770;SDS011;7477;45.222;5.688;2022-07-23T18:35:22;6.90;;;5.32;;
14770;SDS011;7477;45.222;5.688;2022-07-23T18:38:41;6.30;;;5.70;;
14770;SDS011;7477;45.222;5.688;2022-07-23T18:42:01;9.32;;;6.15;;
14770;SDS011;7477;45.222;5.688;2022-07-23T18:45:27;8.38;;;6.13;;
14770;SDS011;7477;45.222;5.688;2022-07-23T18:48:46;6.93;;;6.30;;
14770;SDS011;7477;45.222;5.688;2022-07-23T18:52:05;5.80;;;5.35;;
14770;SDS011;7477;45.222;5.688;2022-07-23T18:55:25;7.45;;;5.85;;
14770;SDS011;7477;45.222;5.688;2022-07-23T18:58:44;6.45;;;5.85;;
14770;SDS011;7477;45.222;5.688;2022-07-23T19:02:04;8.02;;;5.40;;
14770;SDS011;7477;45.222;5.688;2022-07-23T19:05:24;7.57;;;5.95;;
14770;SDS011;7477;45.222;5.688;2022-07-23T19:08:44;6.60;;;5.65;;
14770;SDS011;7477;45.222;5.688;2022-07-23T19:12:03;6.22;;;5.57;;
14770;SDS011;7477;45.222;5.688;2022-07-23T19:15:23;6.47;;;5.43;;
14770;SDS011;7477;45.222;5.688;2022-07-23T19:18:42;7.78;;;5.72;;
14770;SDS011;7477;45.222;5.688;2022-07-23T19:22:01;7.68;;;6.20;;
14770;SDS011;7477;45.222;5.688;2022-07-23T19:25:24;6.68;;;5.88;;
14770;SDS011;7477;45.222;5.688;2022-07-23T19:28:44;9.30;;;6.43;;
14770;SDS011;7477;45.222;5.688;2022-07-23T19:32:05;6.10;;;5.50;;
14770;SDS011;7477;45.222;5.688;2022-07-23T19:35:25;6.18;;;5.57;;
14770;SDS011;7477;45.222;5.688;2022-07-23T19:38:44;7.15;;;5.95;;
14770;SDS011;7477;45.222;5.688;2022-07-23T19:42:04;10.75;;;5.47;;
14770;SDS011;7477;45.222;5.688;2022-07-23T19:45:24;5.78;;;5.15;;
14770;SDS011;7477;45.222;5.688;2022-07-23T19:48:43;6.32;;;5.60;;
14770;SDS011;7477;45.222;5.688;2022-07-23T19:52:02;7.60;;;5.82;;
14770;SDS011;7477;45.222;5.688;2022-07-23T19:55:21;6.30;;;5.70;;
14770;SDS011;7477;45.222;5.688;2022-07-23T19:58:41;7.30;;;5.28;;
14770;SDS011;7477;45.222;5.688;2022-07-23T20:02:01;5.90;;;5.40;;
14770;SDS011;7477;45.222;5.688;2022-07-23T20:05:20;5.80;;;5.18;;
14770;SDS011;7477;45.222;5.688;2022-07-23T20:08:40;7.30;;;4.90;;
14770;SDS011;7477;45.222;5.688;2022-07-23T20:11:59;6.03;;;5.32;;
14770;SDS011;7477;45.222;5.688;2022-07-23T20:15:18;5.88;;;5.38;;
14770;SDS011;7477;45.222;5.688;2022-07-23T20:18:39;5.90;;;5.30;;
14770;SDS011;7477;45.222;5.688;2022-07-23T20:21:58;6.43;;;5.55;;
14770;SDS011;7477;45.222;5.688;2022-07-23T20:25:18;7.68;;;5.40;;
14770;SDS011;7477;45.222;5.688;2022-07-23T20:28:37;6.45;;;5.88;;
14770;SDS011;7477;45.222;5.688;2022-07-23T20:31:56;6.32;;;5.18;;
14770;SDS011;7477;45.222;5.688;2022-07-23T20:35:16;7.35;;;5.30;;
14770;SDS011;7477;45.222;5.688;2022-07-23T20:38:35;7.35;;;5.40;;
14770;SDS011;7477;45.222;5.688;2022-07-23T20:41:55;6.15;;;5.45;;